Time;durP1;ratioP1;P1;durP2;ratioP2;P2;SDS_P1;SDS_P2;PMS_P1;PMS_P2;Temp;Humidity;BMP_temperature;BMP_pressure;BME280_temperature;BME280_humidity;BME280_pressure;Samples;Min_cycle;Max_cycle;Signal;HPM_P1;HPM_P2
2023/02/03 05:30:43;;;;;;;3.80;1.40;;;10.40;68.10;;;;;;5706501;23;20613;-81
2023/02/03 05:33:09;;;;;;;1.30;1.20;;;10.30;67.90;;;;;;4956779;28;20070;-81
2023/02/03 05:35:34;;;;;;;1.42;1.30;;;10.30;68.00;;;;;;4979154;28;20031;-76
2023/02/03 05:38:00;;;;;;;4.00;1.25;;;10.30;68.30;;;;;;4957691;28;20079;-78
2023/02/03 05:43:13;;;;;;;2.92;1.25;;;10.30;68.60;;;;;;4938012;29;20411;-79
2023/02/03 05:45:38;;;;;;;2.75;1.30;;;10.30;68.30;;;;;;4937603;29;20023;-82
2023/02/03 05:48:06;;;;;;;2.05;1.30;;;10.30;68.50;;;;;;4937428;29;20040;-79
2023/02/03 05:50:32;;;;;;;0.95;0.70;;;10.30;68.80;;;;;;4937825;29;20431;-78
2023/02/03 05:53:02;;;;;;;1.15;0.90;;;10.30;68.90;;;;;;4937591;29;20028;-78
2023/02/03 05:55:28;;;;;;;;;;;10.30;68.90;;;;;;4944930;29;20024;-78
2023/02/03 05:57:54;;;;;;;1.67;1.30;;;10.20;69.10;;;;;;4937444;29;19917;-80
2023/02/03 06:00:21;;;;;;;1.75;1.30;;;10.20;69.10;;;;;;4926720;29;20032;-81
2023/02/03 06:03:05;;;;;;;1.85;1.33;;;10.20;68.80;;;;;;4944096;29;20398;-83
2023/02/03 06:05:33;;;;;;;1.50;1.20;;;10.20;68.40;;;;;;4938195;29;20027;-83
2023/02/03 06:07:59;;;;;;;3.30;1.23;;;10.30;68.70;;;;;;4960390;29;20103;-81
2023/02/03 06:10:25;;;;;;;1.55;1.00;;;10.30;68.90;;;;;;4956610;29;20047;-79
2023/02/03 06:12:51;;;;;;;2.95;1.10;;;10.30;68.50;;;;;;4956955;28;20102;-79
2023/02/03 06:15:17;;;;;;;3.08;1.35;;;10.30;68.50;;;;;;4955585;29;20058;-78
2023/02/03 06:17:44;;;;;;;2.42;1.40;;;10.30;68.70;;;;;;4954271;29;21052;-79
2023/02/03 06:20:11;;;;;;;5.07;2.03;;;10.30;68.40;;;;;;4942901;29;20116;-79
2023/02/03 06:22:37;;;;;;;5.70;2.50;;;10.30;68.70;;;;;;4958099;29;20040;-84
2023/02/03 06:25:03;;;;;;;5.57;1.70;;;10.30;68.60;;;;;;4924352;29;20028;-83
2023/02/03 06:27:29;;;;;;;3.55;1.27;;;10.30;68.50;;;;;;4927980;29;20054;-84
2023/02/03 06:29:54;;;;;;;2.20;1.30;;;10.30;68.40;;;;;;4938844;28;20038;-86
2023/02/03 06:32:20;;;;;;;3.38;1.20;;;10.30;68.40;;;;;;4960009;28;20062;-83
2023/02/03 06:34:46;;;;;;;1.40;1.30;;;10.20;68.50;;;;;;4946271;28;20808;-84
2023/02/03 06:37:11;;;;;;;3.50;1.30;;;10.20;68.70;;;;;;4952427;29;20031;-84
2023/02/03 06:39:37;;;;;;;4.00;1.75;;;10.30;68.70;;;;;;4941579;29;20483;-91
2023/02/03 06:42:03;;;;;;;3.72;1.45;;;10.30;68.60;;;;;;4938247;29;20053;-89
2023/02/03 06:44:28;;;;;;;3.25;1.25;;;10.30;68.50;;;;;;4956273;29;20502;-90
2023/02/03 06:46:55;;;;;;;2.63;1.20;;;10.30;68.10;;;;;;4958942;29;20035;-88
2023/02/03 06:49:20;;;;;;;1.70;1.25;;;10.30;68.10;;;;;;4962132;29;20019;-89
2023/02/03 06:51:46;;;;;;;1.67;1.10;;;10.30;68.00;;;;;;4960030;28;20038;-88
2023/02/03 06:54:12;;;;;;;2.33;1.30;;;10.30;67.90;;;;;;4942563;29;20033;-89
2023/02/03 06:56:38;;;;;;;1.20;1.10;;;10.30;68.10;;;;;;4943996;29;20031;-89
2023/02/03 06:59:04;;;;;;;1.65;1.20;;;10.30;68.20;;;;;;4945621;29;20042;-88
2023/02/03 07:01:30;;;;;;;1.60;1.30;;;10.30;68.30;;;;;;4926251;29;20111;-89
2023/02/03 07:03:57;;;;;;;2.00;1.10;;;10.30;68.50;;;;;;4936112;29;20043;-88
2023/02/03 07:06:28;;;;;;;1.50;1.17;;;10.30;68.50;;;;;;4926204;29;20032;-90
2023/02/03 07:08:55;;;;;;;2.63;1.33;;;10.30;68.20;;;;;;4923496;29;20028;-89
2023/02/03 07:11:21;;;;;;;1.70;1.40;;;10.30;68.30;;;;;;4960097;29;20027;-90
2023/02/03 07:13:46;;;;;;;1.90;1.38;;;10.30;68.60;;;;;;4945125;29;20058;-91
2023/02/03 07:16:12;;;;;;;1.90;1.52;;;10.30;68.30;;;;;;4959991;28;20483;-90
2023/02/03 07:18:38;;;;;;;2.85;1.30;;;10.30;68.20;;;;;;4955522;29;20075;-91
2023/02/03 07:21:05;;;;;;;2.03;1.25;;;10.30;68.20;;;;;;4941367;29;20046;-90
2023/02/03 07:23:31;;;;;;;2.95;1.52;;;10.30;68.30;;;;;;4946905;29;20486;-92
2023/02/03 07:26:01;;;;;;;2.13;1.23;;;10.30;68.30;;;;;;4943218;29;20150;-91
2023/02/03 07:28:27;;;;;;;2.13;1.30;;;10.40;68.20;;;;;;4954673;29;20028;-91
2023/02/03 07:30:53;;;;;;;1.77;1.30;;;10.40;68.30;;;;;;4942382;29;20052;-90
2023/02/03 07:33:19;;;;;;;3.47;1.10;;;10.40;68.10;;;;;;4953462;29;20145;-90
2023/02/03 07:35:51;;;;;;;2.28;1.50;;;10.30;68.50;;;;;;4945628;29;20114;-89
2023/02/03 07:38:17;;;;;;;4.80;2.00;;;10.30;68.70;;;;;;4943002;29;20040;-90
2023/02/03 07:40:42;;;;;;;2.85;1.65;;;10.30;68.60;;;;;;4942228;29;20043;-88
2023/02/03 07:43:08;;;;;;;6.93;1.20;;;10.30;68.60;;;;;;4941019;29;20020;-90
2023/02/03 07:45:34;;;;;;;2.58;1.67;;;10.30;68.50;;;;;;4950658;29;20059;-91
2023/02/03 07:47:59;;;;;;;3.80;1.70;;;10.30;68.40;;;;;;4962455;29;20024;-90
2023/02/03 07:50:25;;;;;;;6.30;1.63;;;10.40;68.60;;;;;;4942836;29;20038;-91
2023/02/03 07:52:51;;;;;;;1.85;1.48;;;10.30;68.70;;;;;;4962000;29;20089;-90
2023/02/03 07:55:17;;;;;;;2.50;1.38;;;10.30;68.70;;;;;;4960349;29;20030;-91
2023/02/03 07:57:44;;;;;;;2.92;1.90;;;10.30;68.70;;;;;;4942926;29;20035;-91
2023/02/03 08:00:11;;;;;;;3.95;2.50;;;10.40;68.50;;;;;;4940189;29;20038;-90
2023/02/03 08:02:37;;;;;;;2.80;2.13;;;10.40;68.50;;;;;;4949359;29;20035;-90
2023/02/03 08:05:03;;;;;;;2.38;1.90;;;10.40;68.50;;;;;;4954004;29;20043;-90
2023/02/03 08:07:28;;;;;;;2.22;1.75;;;10.50;68.40;;;;;;4941537;29;20019;-91
2023/02/03 08:09:54;;;;;;;2.75;1.58;;;10.50;68.50;;;;;;4924175;29;20060;-91
2023/02/03 08:12:20;;;;;;;5.57;1.75;;;10.40;68.50;;;;;;4941550;29;20095;-91
2023/02/03 08:14:45;;;;;;;4.05;1.70;;;10.50;68.60;;;;;;4941246;29;20043;-90
2023/02/03 08:17:11;;;;;;;2.85;1.80;;;10.50;68.70;;;;;;4941004;29;20092;-89
2023/02/03 08:19:37;;;;;;;4.32;1.50;;;10.60;68.50;;;;;;4941094;29;20114;-90
2023/02/03 08:22:02;;;;;;;6.78;2.13;;;10.60;68.50;;;;;;4959158;29;20034;-90
2023/02/03 08:24:28;;;;;;;5.72;2.38;;;10.70;68.20;;;;;;4960186;29;20038;-90
2023/02/03 08:26:54;;;;;;;2.38;1.75;;;10.70;68.10;;;;;;4942769;29;20510;-90
2023/02/03 08:29:19;;;;;;;2.33;1.70;;;10.70;68.20;;;;;;4960068;28;20086;-91
2023/02/03 08:31:45;;;;;;;5.80;2.80;;;10.70;68.10;;;;;;4941849;29;20051;-93
2023/02/03 08:34:11;;;;;;;4.07;2.47;;;10.80;68.00;;;;;;4960140;29;20382;-91
2023/02/03 08:36:38;;;;;;;3.22;2.00;;;10.70;68.00;;;;;;4960068;29;20090;-91
2023/02/03 08:39:05;;;;;;;2.75;2.15;;;10.80;67.80;;;;;;4958071;29;20031;-91
2023/02/03 08:41:32;;;;;;;4.03;1.98;;;10.80;67.80;;;;;;4940530;29;20032;-91
2023/02/03 08:43:58;;;;;;;2.65;1.83;;;10.80;67.80;;;;;;4923722;29;20913;-93
2023/02/03 08:46:24;;;;;;;4.60;2.47;;;10.80;67.90;;;;;;4956563;29;20024;-93
2023/02/03 08:48:51;;;;;;;3.45;2.35;;;10.80;68.10;;;;;;4942491;29;20095;-92
2023/02/03 08:51:18;;;;;;;2.63;2.00;;;10.90;68.20;;;;;;4941332;29;20020;-93
2023/02/03 08:53:44;;;;;;;5.40;2.20;;;11.00;68.10;;;;;;4942322;29;20035;-92
2023/02/03 08:56:11;;;;;;;3.65;2.28;;;11.20;68.20;;;;;;4942569;29;20748;-93
2023/02/03 08:58:37;;;;;;;5.05;2.35;;;11.30;67.70;;;;;;4942412;29;20114;-92
2023/02/03 09:01:12;;;;;;;2.67;2.42;;;11.40;67.60;;;;;;4952122;29;20038;-92
2023/02/03 09:03:38;;;;;;;3.22;2.70;;;11.50;67.60;;;;;;4941340;29;20055;-92
2023/02/03 09:06:05;;;;;;;5.97;2.60;;;11.50;67.30;;;;;;4940517;29;20020;-93
2023/02/03 09:08:31;;;;;;;5.25;2.40;;;11.50;67.20;;;;;;4940433;29;20037;-93
2023/02/03 09:10:57;;;;;;;4.13;2.90;;;11.60;67.10;;;;;;4923038;29;20510;-93
2023/02/03 09:13:23;;;;;;;4.57;2.60;;;11.60;67.10;;;;;;4940301;29;20036;-92
2023/02/03 09:15:48;;;;;;;5.22;2.55;;;11.60;67.10;;;;;;4956426;29;20027;-92
2023/02/03 09:18:14;;;;;;;3.78;2.58;;;11.60;67.00;;;;;;4959465;29;20490;-92
2023/02/03 09:20:40;;;;;;;3.35;2.58;;;11.70;67.20;;;;;;4957593;29;20042;-92
2023/02/03 09:23:05;;;;;;;3.70;2.25;;;11.80;67.10;;;;;;4940366;29;20023;-90
2023/02/03 09:25:32;;;;;;;3.55;2.35;;;11.80;66.90;;;;;;4940143;29;20059;-93
2023/02/03 09:28:00;;;;;;;4.35;2.50;;;11.80;66.80;;;;;;4933126;29;20023;-93
2023/02/03 09:30:26;;;;;;;5.20;2.33;;;11.70;67.40;;;;;;4958067;29;20103;-92
2023/02/03 09:32:53;;;;;;;4.63;2.42;;;11.70;67.50;;;;;;4948772;29;20039;-93
2023/02/03 09:35:20;;;;;;;3.67;2.72;;;11.70;67.90;;;;;;4957946;29;20024;-93
2023/02/03 09:37:45;;;;;;;3.47;2.63;;;11.80;67.80;;;;;;4941478;29;20035;-92
2023/02/03 09:40:23;;;;;;;4.18;2.80;;;11.90;68.00;;;;;;4939442;29;20111;-93
2023/02/03 09:43:03;;;;;;;2.97;2.30;;;11.90;68.00;;;;;;4926801;29;20063;-89
2023/02/03 09:45:30;;;;;;;3.15;2.03;;;12.00;68.30;;;;;;4943648;29;20027;-92
2023/02/03 09:48:05;;;;;;;4.78;2.10;;;12.20;68.40;;;;;;4926737;29;20062;-92
2023/02/03 09:50:34;;;;;;;3.83;2.13;;;12.20;68.40;;;;;;4961658;29;20058;-93
2023/02/03 09:53:11;;;;;;;4.43;3.20;;;12.30;68.10;;;;;;4963119;29;20047;-90
2023/02/03 09:55:42;;;;;;;2.97;2.13;;;12.60;67.70;;;;;;4962677;29;20030;-91
2023/02/03 09:58:17;;;;;;;3.00;1.90;;;13.00;67.10;;;;;;4961948;29;20803;-84
2023/02/03 10:00:53;;;;;;;2.60;2.00;;;13.20;66.80;;;;;;4960062;29;20015;-85
2023/02/03 10:03:31;;;;;;;3.72;1.73;;;13.10;66.20;;;;;;4960644;29;20035;-90
2023/02/03 10:06:05;;;;;;;3.38;1.80;;;13.10;66.30;;;;;;4961264;29;20035;-89
2023/02/03 10:08:55;;;;;;;2.88;1.90;;;13.00;66.70;;;;;;4943816;29;20469;-89
2023/02/03 10:11:40;;;;;;;3.25;1.55;;;13.00;66.70;;;;;;4929845;29;20063;-87
2023/02/03 10:14:31;;;;;;;2.67;2.10;;;13.00;67.00;;;;;;4941603;29;20095;-88
2023/02/03 10:17:16;;;;;;;3.33;1.98;;;13.10;66.90;;;;;;4941190;29;20415;-89
2023/02/03 10:19:52;;;;;;;4.28;1.60;;;13.10;66.60;;;;;;4928533;29;20027;-89
2023/02/03 10:22:23;;;;;;;3.70;1.73;;;13.10;66.80;;;;;;4960598;29;20034;-89
2023/02/03 10:24:52;;;;;;;2.55;1.95;;;13.10;66.90;;;;;;4942483;29;20031;-88
2023/02/03 10:27:23;;;;;;;2.67;1.50;;;13.10;66.80;;;;;;4960327;29;20036;-88
2023/02/03 10:30:22;;;;;;;3.17;1.75;;;13.10;66.80;;;;;;4943066;29;20036;-81
2023/02/03 10:32:53;;;;;;;1.90;1.60;;;13.20;66.70;;;;;;4948205;29;20063;-87
2023/02/03 10:35:27;;;;;;;1.98;1.35;;;13.30;66.40;;;;;;4940886;29;20028;-89
2023/02/03 10:37:57;;;;;;;2.22;1.73;;;13.30;66.00;;;;;;4940897;29;20051;-88
2023/02/03 10:40:24;;;;;;;2.75;1.80;;;13.30;66.00;;;;;;4941231;29;20032;-88
2023/02/03 10:45:38;;;;;;;2.53;1.65;;;13.30;66.60;;;;;;4940713;29;20050;-88
2023/02/03 10:48:08;;;;;;;2.30;1.85;;;13.50;67.00;;;;;;4940575;29;20028;-88
2023/02/03 10:50:34;;;;;;;;;;;13.60;66.70;;;;;;4941257;29;20064;-89
2023/02/03 10:53:30;;;;;;;3.55;1.90;;;13.70;66.10;;;;;;4940388;29;19914;-87
2023/02/03 10:56:19;;;;;;;2.35;1.42;;;13.60;66.10;;;;;;4947956;28;20142;-89
2023/02/03 10:58:54;;;;;;;2.03;1.50;;;13.60;66.00;;;;;;4939165;29;20091;-88
2023/02/03 11:01:24;;;;;;;2.05;1.58;;;13.50;66.30;;;;;;4949802;29;20027;-88
2023/02/03 11:03:56;;;;;;;4.03;1.88;;;13.50;66.80;;;;;;4960141;28;20046;-89
2023/02/03 11:06:22;;;;;;;4.18;2.20;;;13.40;66.60;;;;;;4958261;29;20037;-86
2023/02/03 11:08:49;;;;;;;2.85;2.03;;;13.50;66.60;;;;;;4939898;29;20023;-89
2023/02/03 11:11:27;;;;;;;6.22;2.13;;;13.60;67.20;;;;;;4949465;29;20034;-88
2023/02/03 11:13:55;;;;;;;3.15;2.17;;;13.80;66.80;;;;;;4941772;29;20027;-87
2023/02/03 11:16:25;;;;;;;2.88;1.75;;;13.90;66.30;;;;;;4939727;29;20562;-88
2023/02/03 11:18:56;;;;;;;3.22;1.80;;;14.10;66.00;;;;;;4947929;29;20031;-88
2023/02/03 11:21:27;;;;;;;6.65;2.53;;;14.00;65.80;;;;;;4937730;29;20070;-87
2023/02/03 11:24:01;;;;;;;3.65;1.98;;;13.90;65.80;;;;;;4940151;29;20506;-87
2023/02/03 11:26:38;;;;;;;3.20;1.92;;;13.80;66.10;;;;;;4939985;29;20034;-88
2023/02/03 11:29:07;;;;;;;3.22;1.70;;;13.80;66.00;;;;;;4922978;29;20083;-88
2023/02/03 11:31:35;;;;;;;2.97;1.90;;;13.90;66.20;;;;;;4958843;29;20055;-88
2023/02/03 11:34:13;;;;;;;3.05;1.20;;;13.80;66.40;;;;;;4958409;29;20019;-87
2023/02/03 11:36:39;;;;;;;2.58;1.40;;;13.70;66.60;;;;;;4958041;29;20078;-88
2023/02/03 11:39:16;;;;;;;2.67;1.45;;;13.60;67.00;;;;;;4950649;29;20038;-89
2023/02/03 11:41:42;;;;;;;2.47;1.55;;;13.40;67.70;;;;;;4941062;29;20031;-88
2023/02/03 11:44:16;;;;;;;1.70;1.25;;;13.40;67.90;;;;;;4958776;29;20397;-88
2023/02/03 11:46:44;;;;;;;3.22;1.40;;;13.40;68.00;;;;;;4958807;29;20449;-88
2023/02/03 11:49:57;;;;;;;1.95;1.38;;;13.50;68.50;;;;;;4958812;29;20082;-88
2023/02/03 11:52:48;;;;;;;1.88;1.30;;;13.50;67.50;;;;;;4896564;29;20130;-88
2023/02/03 11:55:13;;;;;;;1.95;1.48;;;13.70;67.30;;;;;;4941757;29;20033;-89
2023/02/03 11:58:00;;;;;;;2.42;1.58;;;13.80;66.90;;;;;;4934190;29;20146;-88
2023/02/03 12:01:17;;;;;;;3.13;1.48;;;13.90;67.20;;;;;;4924853;29;20106;-88
2023/02/03 12:04:01;;;;;;;2.58;1.10;;;14.10;66.70;;;;;;4913987;29;20090;-87
2023/02/03 12:06:54;;;;;;;2.65;1.45;;;14.00;66.00;;;;;;4948535;29;20106;-87
2023/02/03 12:09:36;;;;;;;2.13;1.80;;;14.10;66.30;;;;;;4939252;29;20031;-88
2023/02/03 12:12:28;;;;;;;2.15;1.55;;;14.20;66.40;;;;;;4954649;29;20043;-87
2023/02/03 12:15:00;;;;;;;2.53;1.63;;;14.20;65.60;;;;;;4941210;29;20082;-88
2023/02/03 12:17:35;;;;;;;3.00;1.90;;;14.20;65.80;;;;;;4957322;29;20024;-89
2023/02/03 12:20:20;;;;;;;3.83;1.70;;;14.10;65.90;;;;;;4958231;29;20031;-88
2023/02/03 12:23:09;;;;;;;3.15;1.65;;;14.00;65.90;;;;;;4955861;29;20023;-87
2023/02/03 12:26:04;;;;;;;2.53;1.67;;;14.00;66.10;;;;;;4941027;29;20035;-88
2023/02/03 12:28:57;;;;;;;2.75;1.20;;;13.80;66.40;;;;;;4918467;29;20036;-87
2023/02/03 12:31:37;;;;;;;2.00;1.40;;;13.60;66.90;;;;;;4933349;29;20047;-87
2023/02/03 12:34:11;;;;;;;4.43;1.55;;;13.50;67.40;;;;;;4957996;29;20027;-88
2023/02/03 12:36:41;;;;;;;2.17;1.55;;;13.50;67.50;;;;;;4957988;29;20049;-87
2023/02/03 12:39:38;;;;;;;3.35;1.80;;;13.50;67.60;;;;;;4957145;29;20050;-87
2023/02/03 12:42:17;;;;;;;3.05;1.25;;;13.50;67.70;;;;;;4956156;29;20561;-89
2023/02/03 12:44:52;;;;;;;2.13;1.50;;;13.40;68.10;;;;;;4957954;29;20166;-88
2023/02/03 12:47:25;;;;;;;2.65;1.30;;;13.40;67.90;;;;;;4940229;28;20027;-85
2023/02/03 12:49:59;;;;;;;2.63;1.60;;;13.30;68.20;;;;;;4938443;29;20487;-84
2023/02/03 12:52:50;;;;;;;2.30;1.50;;;13.30;68.40;;;;;;4939529;29;20040;-85
2023/02/03 12:55:34;;;;;;;2.60;1.25;;;13.40;68.60;;;;;;4942201;29;20028;-89
2023/02/03 12:58:06;;;;;;;2.15;1.35;;;13.30;68.40;;;;;;4940556;29;20078;-88
2023/02/03 13:00:47;;;;;;;1.48;1.10;;;13.30;68.50;;;;;;4957220;29;20023;-88
2023/02/03 13:03:25;;;;;;;1.77;1.00;;;13.30;68.20;;;;;;4947723;29;20050;-89
2023/02/03 13:06:13;;;;;;;1.80;1.10;;;13.30;67.90;;;;;;4938025;29;20024;-87
2023/02/03 13:09:13;;;;;;;1.42;1.00;;;13.30;67.90;;;;;;4938083;29;20107;-80
2023/02/03 13:11:52;;;;;;;2.83;1.20;;;13.30;68.00;;;;;;4941689;28;20494;-89
2023/02/03 13:14:41;;;;;;;1.65;1.20;;;13.30;67.90;;;;;;4937302;29;20118;-89
2023/02/03 13:17:28;;;;;;;2.78;1.10;;;13.20;68.00;;;;;;4941601;29;20036;-90
2023/02/03 13:20:10;;;;;;;2.03;1.00;;;13.10;68.70;;;;;;4941964;29;20028;-90
2023/02/03 13:22:35;;;;;;;1.73;1.15;;;13.10;69.00;;;;;;4925494;29;20059;-90
2023/02/03 13:25:05;;;;;;;1.42;0.52;;;13.20;69.10;;;;;;4942089;29;20036;-89
2023/02/03 13:28:01;;;;;;;0.85;0.68;;;13.20;68.50;;;;;;4942254;29;20032;-90
2023/02/03 13:31:00;;;;;;;0.90;0.77;;;13.20;68.40;;;;;;4924512;29;20044;-89
2023/02/03 13:33:59;;;;;;;1.83;1.00;;;13.30;68.20;;;;;;4924395;29;20024;-90
2023/02/03 13:36:47;;;;;;;1.37;0.90;;;13.40;67.80;;;;;;4929225;29;20042;-91
2023/02/03 13:39:37;;;;;;;1.80;0.90;;;13.50;67.90;;;;;;4941823;29;20750;-90
2023/02/03 13:42:17;;;;;;;1.63;0.80;;;13.60;67.80;;;;;;4948778;29;20055;-90
2023/02/03 13:44:46;;;;;;;3.08;1.25;;;13.60;67.60;;;;;;4943860;29;20027;-89
2023/02/03 13:47:23;;;;;;;2.13;0.80;;;13.70;67.20;;;;;;4946401;29;20059;-91
2023/02/03 13:49:54;;;;;;;2.72;1.50;;;13.70;67.00;;;;;;4941583;29;20051;-91
2023/02/03 13:52:28;;;;;;;3.28;1.42;;;13.70;67.10;;;;;;4924119;29;20028;-91
2023/02/03 13:54:55;;;;;;;1.98;1.20;;;13.80;67.30;;;;;;4946460;29;20028;-89
2023/02/03 13:57:30;;;;;;;2.22;1.30;;;13.80;67.20;;;;;;4959212;29;20031;-90
2023/02/03 13:59:55;;;;;;;2.17;1.15;;;13.80;67.50;;;;;;4941396;29;20043;-89
2023/02/03 14:02:21;;;;;;;2.75;1.40;;;13.80;67.10;;;;;;4938969;29;20023;-90
2023/02/03 14:04:46;;;;;;;1.92;1.40;;;13.80;66.90;;;;;;4941420;29;20059;-89
2023/02/03 14:07:37;;;;;;;1.60;1.30;;;13.80;67.00;;;;;;4941639;29;20026;-90
2023/02/03 14:10:14;;;;;;;2.20;1.27;;;13.80;66.90;;;;;;4941227;29;20115;-90
2023/02/03 14:12:49;;;;;;;4.28;1.45;;;13.80;66.90;;;;;;4941113;29;20035;-90
2023/02/03 14:15:35;;;;;;;3.83;1.60;;;13.70;66.80;;;;;;4941344;29;20036;-89
2023/02/03 14:18:05;;;;;;;2.10;1.40;;;13.70;67.10;;;;;;4940800;29;20526;-90
2023/02/03 14:20:40;;;;;;;2.00;1.48;;;13.70;67.20;;;;;;4941136;29;20505;-88
2023/02/03 14:23:06;;;;;;;1.85;1.30;;;13.60;67.40;;;;;;4923637;29;20038;-90
2023/02/03 14:25:45;;;;;;;2.70;1.52;;;13.70;67.00;;;;;;4940810;29;20507;-90
2023/02/03 14:28:20;;;;;;;2.42;1.00;;;13.60;67.40;;;;;;4923725;29;20027;-89
2023/02/03 14:31:11;;;;;;;2.13;1.30;;;13.60;67.50;;;;;;4941115;29;20107;-89
2023/02/03 14:34:02;;;;;;;3.70;1.35;;;13.60;67.30;;;;;;4936860;29;20075;-91
2023/02/03 14:36:33;;;;;;;1.70;1.02;;;13.60;67.30;;;;;;4923831;29;20114;-88
2023/02/03 14:39:04;;;;;;;3.60;1.50;;;13.60;67.60;;;;;;4940592;29;20024;-91
2023/02/03 14:41:45;;;;;;;;;;;13.60;67.20;;;;;;4941548;29;20032;-88
2023/02/03 14:44:13;;;;;;;2.45;1.17;;;13.60;67.00;;;;;;4960554;28;19934;-88
2023/02/03 14:46:57;;;;;;;2.50;1.10;;;13.60;66.70;;;;;;4948389;29;20059;-88
2023/02/03 14:49:32;;;;;;;2.65;1.55;;;13.50;66.70;;;;;;4940772;29;20479;-89
2023/02/03 14:52:16;;;;;;;2.60;0.93;;;13.50;66.40;;;;;;4940726;29;20442;-88
2023/02/03 14:55:23;;;;;;;1.55;0.85;;;13.50;66.40;;;;;;4941237;29;20039;-81
2023/02/03 14:58:00;;;;;;;1.10;0.85;;;13.50;66.20;;;;;;4916403;29;20375;-84
2023/02/03 15:00:34;;;;;;;1.77;0.85;;;13.50;65.90;;;;;;4956532;29;20109;-86
2023/02/03 15:03:07;;;;;;;1.80;1.10;;;13.50;66.00;;;;;;4942119;29;20553;-85
2023/02/03 15:05:39;;;;;;;3.20;1.13;;;13.50;66.10;;;;;;4942312;29;20032;-87
2023/02/03 15:08:32;;;;;;;2.13;0.93;;;13.50;65.90;;;;;;4961825;28;20027;-87
2023/02/03 15:10:58;;;;;;;1.77;1.15;;;13.50;66.00;;;;;;4947103;29;20023;-87
2023/02/03 15:13:29;;;;;;;2.85;1.25;;;13.50;65.90;;;;;;4941970;29;20038;-85
2023/02/03 15:16:00;;;;;;;2.20;1.38;;;13.50;66.20;;;;;;4959286;29;20039;-87
2023/02/03 15:18:35;;;;;;;2.63;1.30;;;13.50;66.10;;;;;;4957991;29;20110;-83
2023/02/03 15:21:02;;;;;;;1.83;1.10;;;13.50;66.20;;;;;;4940453;29;20787;-85
2023/02/03 15:23:35;;;;;;;1.33;1.17;;;13.40;66.20;;;;;;4939986;29;20102;-84
2023/02/03 15:26:09;;;;;;;2.22;1.33;;;13.40;66.20;;;;;;4939950;29;20028;-87
2023/02/03 15:28:35;;;;;;;2.65;1.23;;;13.30;65.90;;;;;;4939740;29;20066;-87
2023/02/03 15:31:06;;;;;;;2.13;1.17;;;13.30;66.40;;;;;;4939655;29;20051;-84
2023/02/03 15:33:35;;;;;;;2.80;1.50;;;13.30;66.30;;;;;;4936836;29;20046;-85
2023/02/03 15:36:10;;;;;;;1.70;1.27;;;13.30;66.20;;;;;;4955346;29;20023;-88
2023/02/03 15:38:41;;;;;;;2.42;1.60;;;13.30;66.50;;;;;;4938726;29;20020;-87
2023/02/03 15:41:16;;;;;;;2.55;1.38;;;13.20;66.40;;;;;;4938349;29;20040;-87
2023/02/03 15:43:45;;;;;;;3.15;1.70;;;13.20;66.80;;;;;;4939572;29;20383;-85
2023/02/03 15:46:38;;;;;;;5.53;2.33;;;13.20;66.80;;;;;;4939319;29;20034;-89
2023/02/03 15:49:32;;;;;;;2.30;1.70;;;13.20;66.90;;;;;;4922307;29;20024;-85
2023/02/03 15:52:17;;;;;;;4.97;1.63;;;13.20;67.00;;;;;;4918135;29;20533;-87
2023/02/03 15:54:52;;;;;;;3.95;1.52;;;13.10;67.10;;;;;;4953961;29;20130;-88
2023/02/03 15:57:27;;;;;;;4.88;1.63;;;13.10;67.00;;;;;;4958652;29;20024;-85
2023/02/03 16:00:07;;;;;;;4.07;1.67;;;13.10;67.10;;;;;;5055248;28;20400;-88
2023/02/03 16:02:39;;;;;;;4.32;1.65;;;13.10;67.10;;;;;;5072883;28;20526;-87
2023/02/03 16:05:24;;;;;;;2.05;1.30;;;13.10;67.30;;;;;;5067763;28;20039;-88
2023/02/03 16:07:50;;;;;;;2.58;1.35;;;13.00;67.10;;;;;;5085259;28;20029;-88
2023/02/03 16:10:32;;;;;;;5.03;2.10;;;13.10;67.10;;;;;;5061934;28;20029;-88
2023/02/03 16:13:19;;;;;;;3.78;2.20;;;13.00;67.20;;;;;;5073074;28;20071;-87
2023/02/03 16:15:58;;;;;;;2.65;1.70;;;13.00;67.30;;;;;;5053027;28;20032;-87
2023/02/03 16:18:24;;;;;;;3.20;2.05;;;13.00;67.40;;;;;;5052600;28;20100;-88
2023/02/03 16:20:50;;;;;;;2.33;1.40;;;13.00;67.30;;;;;;5051418;28;20028;-87
2023/02/03 16:23:26;;;;;;;3.40;1.80;;;12.90;67.90;;;;;;5052870;28;20116;-88
2023/02/03 16:26:14;;;;;;;3.78;1.80;;;12.90;68.10;;;;;;5052624;28;20017;-87
2023/02/03 16:50:56;;;;;;;2.40;1.23;;;12.80;68.10;;;;;;5065874;28;20086;-85
2023/02/03 16:53:29;;;;;;;3.47;1.90;;;12.70;68.10;;;;;;5063894;28;20036;-84
2023/02/03 16:55:56;;;;;;;5.22;2.13;;;12.70;67.90;;;;;;5066462;28;20665;-87
2023/02/03 16:58:22;;;;;;;3.47;2.00;;;12.70;68.00;;;;;;5070646;28;20086;-82
2023/02/03 17:00:51;;;;;;;3.35;1.80;;;12.70;68.30;;;;;;5067974;28;20193;-84
2023/02/03 17:03:22;;;;;;;2.65;1.50;;;12.70;68.20;;;;;;5066169;28;20021;-87
2023/02/03 17:05:49;;;;;;;3.13;2.67;;;12.60;68.10;;;;;;5069942;28;20027;-86
2023/02/03 17:08:16;;;;;;;3.53;2.65;;;12.60;68.20;;;;;;5064955;28;20116;-82
2023/02/03 17:10:44;;;;;;;4.90;2.47;;;12.60;68.90;;;;;;5058666;28;20044;-87
2023/02/03 17:13:11;;;;;;;4.32;3.05;;;12.60;68.70;;;;;;5058122;28;20510;-81
2023/02/03 17:15:45;;;;;;;8.18;3.15;;;12.60;69.20;;;;;;5057773;28;20060;-84
2023/02/03 17:18:13;;;;;;;6.95;3.78;;;12.60;69.00;;;;;;5056313;28;20036;-88
2023/02/03 17:20:40;;;;;;;8.00;3.85;;;12.60;69.00;;;;;;5059932;28;20489;-84
2023/02/03 17:23:07;;;;;;;6.93;4.50;;;12.70;68.80;;;;;;5052068;28;20082;-78
2023/02/03 17:25:52;;;;;;;5.57;3.35;;;12.60;68.90;;;;;;5057663;28;20387;-86
2023/02/03 17:28:17;;;;;;;5.63;3.03;;;12.60;68.80;;;;;;5048864;28;20391;-82
2023/02/03 17:30:43;;;;;;;7.03;3.58;;;12.50;68.90;;;;;;5053964;28;20029;-81
2023/02/03 17:33:12;;;;;;;5.78;1.88;;;12.50;69.10;;;;;;5060697;28;20028;-83
2023/02/03 17:35:49;;;;;;;2.75;2.00;;;12.50;69.00;;;;;;5052258;28;20064;-85
2023/02/03 17:38:14;;;;;;;7.32;4.90;;;12.50;69.20;;;;;;5053026;28;20028;-84
2023/02/03 17:40:41;;;;;;;8.90;5.03;;;12.50;69.10;;;;;;5057469;28;20033;-79
2023/02/03 17:43:07;;;;;;;10.88;6.00;;;12.40;69.10;;;;;;5078652;28;20520;-79
2023/02/03 17:45:33;;;;;;;10.60;6.68;;;12.40;69.50;;;;;;5055938;28;20051;-84
2023/02/03 17:48:00;;;;;;;14.90;7.80;;;12.30;69.30;;;;;;5057016;28;20116;-80
2023/02/03 17:50:25;;;;;;;14.15;8.65;;;12.30;69.40;;;;;;5057178;28;20037;-88
2023/02/03 17:52:51;;;;;;;13.70;8.27;;;12.30;69.40;;;;;;5056305;28;20514;-82
2023/02/03 17:55:17;;;;;;;20.35;9.30;;;12.30;69.60;;;;;;5056857;28;20031;-81
2023/02/03 17:57:43;;;;;;;13.38;6.22;;;12.40;69.20;;;;;;5053730;28;20107;-83
2023/02/03 18:00:09;;;;;;;4.75;2.85;;;12.30;68.90;;;;;;5053270;28;20064;-82
2023/02/03 18:02:35;;;;;;;5.18;2.75;;;12.40;68.80;;;;;;5055738;28;20020;-80
2023/02/03 18:05:04;;;;;;;5.60;2.35;;;12.40;68.20;;;;;;5055900;28;20025;-90
2023/02/03 18:07:29;;;;;;;5.85;2.45;;;12.40;67.20;;;;;;5060269;28;20071;-80
2023/02/03 18:09:55;;;;;;;4.20;2.70;;;12.30;66.90;;;;;;5058046;28;20041;-89
2023/02/03 18:12:21;;;;;;;5.60;2.30;;;12.30;66.90;;;;;;5061916;28;20040;-88
2023/02/03 18:14:47;;;;;;;4.68;2.60;;;12.40;66.60;;;;;;5053869;28;20037;-89
2023/02/03 18:17:12;;;;;;;3.60;2.78;;;12.30;66.80;;;;;;5059864;28;20368;-91
2023/02/03 18:19:38;;;;;;;2.72;2.17;;;12.30;66.40;;;;;;5058499;28;20085;-92
2023/02/03 18:22:03;;;;;;;4.78;2.78;;;12.30;66.40;;;;;;5051007;28;20037;-90
2023/02/03 18:24:29;;;;;;;3.63;2.35;;;12.30;66.30;;;;;;5057998;28;20013;-90
2023/02/03 18:26:55;;;;;;;4.47;2.58;;;12.30;66.20;;;;;;5056025;28;20029;-90
2023/02/03 18:29:23;;;;;;;5.82;2.75;;;12.30;66.30;;;;;;5059126;28;20019;-89
2023/02/03 18:31:49;;;;;;;4.65;3.03;;;12.30;66.30;;;;;;5057856;28;20025;-89
2023/02/03 18:34:18;;;;;;;3.60;2.88;;;12.30;66.40;;;;;;5053903;28;20522;-89
2023/02/03 18:36:44;;;;;;;7.55;4.90;;;12.30;66.80;;;;;;5057471;28;20017;-87
2023/02/03 18:39:10;;;;;;;10.80;6.90;;;12.20;67.00;;;;;;5057451;28;20059;-87
2023/02/03 18:41:37;;;;;;;14.68;8.43;;;12.20;67.00;;;;;;5051332;28;20082;-89
2023/02/03 18:44:03;;;;;;;14.63;8.43;;;12.20;66.50;;;;;;5038184;28;20101;-86
2023/02/03 18:46:30;;;;;;;10.48;6.28;;;12.20;66.80;;;;;;5055819;28;20029;-85
2023/02/03 18:48:57;;;;;;;9.02;6.85;;;12.20;66.90;;;;;;5055842;28;20510;-83
2023/02/03 18:51:26;;;;;;;6.50;5.50;;;12.20;66.70;;;;;;5044093;28;20076;-91
2023/02/03 18:53:56;;;;;;;6.67;4.93;;;12.20;66.90;;;;;;5037443;28;20033;-86
2023/02/03 18:56:24;;;;;;;7.60;4.60;;;12.20;66.70;;;;;;5052878;28;20025;-85
2023/02/03 18:58:50;;;;;;;7.57;4.10;;;12.20;66.80;;;;;;5053446;28;20060;-86
2023/02/03 19:01:23;;;;;;;5.53;3.88;;;12.30;66.90;;;;;;5044644;28;20028;-83
2023/02/03 19:03:49;;;;;;;5.72;4.75;;;12.20;66.80;;;;;;5057157;28;20495;-89
2023/02/03 19:06:15;;;;;;;7.70;5.13;;;12.20;67.20;;;;;;5051634;28;20022;-84
2023/02/03 19:08:41;;;;;;;9.85;5.43;;;12.20;67.40;;;;;;5037465;28;20034;-83
2023/02/03 19:11:06;;;;;;;12.13;6.97;;;12.20;67.40;;;;;;5039272;28;20033;-79